Time;durP1;ratioP1;P1;durP2;ratioP2;P2;SDS_P1;SDS_P2;PMS_P1;PMS_P2;Temp;Humidity;BMP_temperature;BMP_pressure;BME280_temperature;BME280_humidity;BME280_pressure;Samples;Min_cycle;Max_cycle;Signal;HPM_P1;HPM_P2
2022/05/20 00:01:48;;;;;;;3.20;2.90;;;23.40;79.20;;;24.00;49.74;99146.25;4988773;28;123115;-88
2022/05/20 00:04:15;;;;;;;2.80;2.60;;;23.40;79.30;;;24.01;49.79;99152.69;4986606;28;123897;-88
2022/05/20 00:06:42;;;;;;;3.20;2.47;;;23.50;79.30;;;24.00;50.04;99151.88;4970798;28;109114;-89
2022/05/20 00:09:08;;;;;;;2.40;2.20;;;23.40;79.30;;;23.98;49.95;99153.47;4985555;28;109797;-87
2022/05/20 00:11:36;;;;;;;2.73;2.53;;;23.40;79.30;;;23.96;49.81;99148.22;4985240;28;124305;-88
2022/05/20 00:14:05;;;;;;;3.37;2.67;;;23.40;79.30;;;23.95;49.99;99140.97;4970427;28;124094;-87
2022/05/20 00:16:35;;;;;;;3.07;2.70;;;23.40;79.40;;;23.92;49.91;99140.97;4968427;28;110956;-88
2022/05/20 00:19:05;;;;;;;3.20;2.70;;;23.40;79.40;;;23.87;50.12;99147.78;4967835;28;110310;-89
2022/05/20 00:21:33;;;;;;;4.60;3.07;;;23.40;79.40;;;23.86;50.00;99136.88;4969924;28;124322;-89
2022/05/20 00:24:01;;;;;;;3.57;2.83;;;23.30;79.40;;;23.84;50.05;99139.28;4969328;28;123595;-88
2022/05/20 00:26:28;;;;;;;3.83;3.43;;;23.30;79.50;;;23.79;49.86;99141.28;4970218;28;109159;-88
2022/05/20 00:28:55;;;;;;;4.00;2.87;;;23.30;79.50;;;23.77;50.07;99137.22;4969079;28;108773;-89
2022/05/20 00:31:25;;;;;;;2.90;2.60;;;23.20;79.30;;;23.74;50.04;99127.53;4969258;28;124466;-89
2022/05/20 00:33:52;;;;;;;2.80;2.53;;;23.20;79.50;;;23.74;49.94;99133.16;4970786;28;124714;-89
2022/05/20 00:36:19;;;;;;;3.37;2.90;;;23.20;79.40;;;23.72;49.94;99135.59;4972940;28;108924;-88
2022/05/20 00:38:46;;;;;;;3.10;2.77;;;23.20;79.50;;;23.67;50.09;99135.94;4970422;28;109193;-88
2022/05/20 00:41:13;;;;;;;3.33;3.03;;;23.20;79.50;;;23.65;50.28;99138.34;4968410;28;123816;-89
2022/05/20 00:43:44;;;;;;;3.80;3.20;;;23.10;79.40;;;23.60;50.21;99145.13;4971335;28;124612;-89
2022/05/20 00:46:24;;;;;;;3.27;2.97;;;23.10;79.50;;;23.56;50.24;99140.66;4973930;28;109247;-88
2022/05/20 00:49:00;;;;;;;4.40;3.00;;;23.10;79.60;;;23.51;50.39;99141.06;4973070;28;109047;-88
2022/05/20 00:51:34;;;;;;;3.73;3.33;;;23.00;79.60;;;23.44;50.45;99141.00;4989017;28;123952;-89
2022/05/20 00:54:14;;;;;;;4.07;3.13;;;23.00;79.70;;;23.39;50.22;99122.41;4988539;28;124296;-88
2022/05/20 00:56:54;;;;;;;3.20;2.90;;;22.90;79.70;;;23.34;50.52;99117.13;4974332;28;108994;-89
2022/05/20 00:59:28;;;;;;;4.80;2.60;;;22.90;79.90;;;23.31;50.74;99115.09;4971473;28;109155;-90
2022/05/20 01:02:00;;;;;;;3.80;3.50;;;22.90;79.90;;;23.30;50.49;99134.03;4972192;28;124241;-90
2022/05/20 01:04:29;;;;;;;3.63;3.33;;;22.80;80.00;;;23.27;50.78;99123.53;4986222;28;123747;-89
2022/05/20 01:06:57;;;;;;;3.87;3.47;;;22.80;80.20;;;23.21;50.81;99116.63;4988190;28;109807;-89
2022/05/20 01:09:24;;;;;;;3.30;2.83;;;22.70;80.20;;;23.17;50.82;99112.19;4971227;28;108943;-89
2022/05/20 01:11:51;;;;;;;3.10;2.90;;;22.70;80.30;;;23.18;51.05;99122.25;4973811;28;124011;-90
2022/05/20 01:14:25;;;;;;;3.50;2.90;;;22.70;80.50;;;23.20;50.82;99115.00;4970223;28;124277;-89
2022/05/20 01:16:53;;;;;;;3.00;2.70;;;22.70;80.70;;;23.24;50.83;99121.50;4971534;28;109494;-89
2022/05/20 01:19:49;;;;;;;3.33;3.03;;;22.70;80.80;;;23.23;50.72;99114.22;4980337;28;109026;-89
2022/05/20 01:22:48;;;;;;;3.33;3.03;;;22.70;80.80;;;23.22;50.99;99120.28;4968650;28;123895;-88
2022/05/20 01:25:15;;;;;;;3.10;2.83;;;22.70;80.90;;;23.19;51.15;99129.53;4974151;28;124043;-89
2022/05/20 01:27:46;;;;;;;3.57;3.10;;;22.70;81.00;;;23.16;51.14;99125.47;4986317;28;109645;-89
2022/05/20 01:30:18;;;;;;;3.70;2.93;;;22.60;80.90;;;23.13;50.84;99121.41;4973111;28;109266;-89
2022/05/20 01:32:45;;;;;;;3.40;3.10;;;22.60;80.90;;;23.12;50.89;99119.78;4989581;28;122969;-89
2022/05/20 01:35:20;;;;;;;4.40;3.53;;;22.60;81.00;;;23.11;51.30;99123.00;4970492;28;124043;-88
2022/05/20 01:37:49;;;;;;;3.10;2.83;;;22.60;81.10;;;23.11;50.91;99123.00;4976136;28;109145;-88
2022/05/20 01:40:16;;;;;;;4.77;3.03;;;22.60;81.10;;;23.11;51.15;99117.38;4967201;28;108930;-88
2022/05/20 01:43:06;;;;;;;3.70;3.40;;;22.60;81.30;;;23.07;51.16;99122.16;4986236;28;123877;-89
2022/05/20 01:45:38;;;;;;;4.03;3.43;;;22.60;81.30;;;23.05;51.22;99110.44;4967187;28;124280;-88
2022/05/20 01:48:10;;;;;;;2.87;2.67;;;22.50;81.30;;;23.02;51.26;99120.47;4972698;28;108909;-89
2022/05/20 01:50:48;;;;;;;3.20;2.90;;;22.50;81.40;;;23.02;51.15;99116.84;4965647;28;108970;-89
2022/05/20 01:53:24;;;;;;;3.27;2.83;;;22.50;81.40;;;23.01;51.42;99112.44;4951769;28;124081;-89
2022/05/20 01:55:57;;;;;;;2.80;2.60;;;22.50;81.50;;;23.03;51.35;99112.88;4995802;28;124017;-89
2022/05/20 01:58:44;;;;;;;3.97;2.87;;;22.50;81.60;;;23.04;51.12;99089.09;4990281;28;109151;-89
2022/05/20 02:01:20;;;;;;;3.10;2.70;;;22.50;81.60;;;23.06;51.03;99086.72;5002184;28;108917;-88
2022/05/20 02:03:53;;;;;;;4.50;2.93;;;22.50;81.70;;;23.09;50.97;99094.38;4989605;28;122982;-89
2022/05/20 02:06:41;;;;;;;4.20;3.10;;;22.50;81.70;;;23.08;51.17;99098.41;4986766;28;123777;-88
2022/05/20 02:09:19;;;;;;;3.23;2.93;;;22.50;81.70;;;23.10;51.23;99098.81;4990068;28;109712;-88
2022/05/20 02:11:50;;;;;;;3.33;3.03;;;23.10;82.30;;;23.11;51.55;99097.63;4990168;28;107824;-90
2022/05/20 02:14:29;;;;;;;3.03;2.73;;;22.50;81.80;;;23.11;50.93;99098.44;4970948;28;124135;-89
2022/05/20 02:17:38;;;;;;;2.93;2.63;;;22.50;81.80;;;23.10;51.08;99098.81;4994795;28;124014;-90
2022/05/20 02:20:19;;;;;;;3.73;3.40;;;22.60;81.80;;;23.07;51.04;99103.22;4984810;28;109889;-88
2022/05/20 02:22:58;;;;;;;2.80;2.60;;;22.50;81.70;;;23.08;51.33;99106.88;4952882;28;108630;-89
2022/05/20 02:25:31;;;;;;;4.10;2.87;;;22.50;81.80;;;23.09;51.49;99102.84;4966649;28;123947;-90
2022/05/20 02:28:07;;;;;;;3.20;2.90;;;24.00;83.20;;;23.12;51.18;99113.34;4971936;28;124607;-88
2022/05/20 02:30:34;;;;;;;3.70;2.83;;;22.50;82.00;;;23.13;51.18;99106.50;4956510;28;108810;-88
2022/05/20 02:33:10;;;;;;;9.43;3.83;;;22.50;82.00;;;23.16;51.09;99114.19;4987207;28;109168;-89
2022/05/20 02:35:39;;;;;;;4.77;3.00;;;22.60;82.20;;;23.15;51.31;99115.38;4969695;28;124075;-89
2022/05/20 02:38:17;;;;;;;6.07;2.97;;;22.60;82.40;;;23.14;51.27;99117.38;4986087;28;123609;-90
2022/05/20 02:40:50;;;;;;;4.10;2.80;;;22.50;82.30;;;23.13;51.46;99112.97;4970058;28;110383;-88
2022/05/20 02:43:18;;;;;;;3.27;2.93;;;22.50;82.50;;;23.14;51.81;99110.94;4972079;28;108495;-88
2022/05/20 02:45:46;;;;;;;3.40;3.10;;;22.50;82.60;;;23.12;51.80;99111.31;4972640;28;124090;-88
2022/05/20 02:48:16;;;;;;;3.80;3.17;;;22.50;82.80;;;23.08;51.98;99107.69;4986090;28;122923;-89
2022/05/20 02:50:42;;;;;;;3.80;3.23;;;22.50;83.00;;;23.07;52.10;99110.88;4987954;28;110135;-88
2022/05/20 02:53:10;;;;;;;3.27;2.97;;;22.50;83.10;;;23.06;51.89;99109.25;4971375;28;109332;-88
2022/05/20 02:55:37;;;;;;;3.40;3.10;;;22.50;83.30;;;23.06;52.27;99098.78;4969846;28;123598;-89
2022/05/20 02:58:04;;;;;;;4.13;3.20;;;22.50;83.50;;;23.06;52.11;99098.78;4973249;28;124045;-89
2022/05/20 03:06:01;;;;;;;3.17;2.50;;;22.40;83.80;;;23.02;52.32;99106.38;4973048;28;124479;-89
2022/05/20 03:08:28;;;;;;;4.13;3.73;;;22.50;84.10;;;23.03;52.74;99104.41;4986776;28;123030;-88
2022/05/20 03:10:55;;;;;;;4.03;3.43;;;22.40;84.00;;;23.01;52.50;99101.16;4973371;28;110408;-90
2022/05/20 03:13:21;;;;;;;4.13;3.00;;;22.40;84.40;;;22.99;52.66;99109.19;4971439;28;108962;-89
2022/05/20 03:15:48;;;;;;;3.50;3.00;;;22.40;84.50;;;22.96;52.87;99105.13;4969730;28;124247;-89
2022/05/20 03:18:14;;;;;;;5.00;3.00;;;22.40;84.70;;;22.92;53.11;99102.25;4968444;28;123869;-89
2022/05/20 03:20:42;;;;;;;4.13;3.07;;;22.40;85.00;;;22.87;53.00;99099.81;4973977;28;109090;-89
2022/05/20 03:23:10;;;;;;;3.77;3.20;;;22.30;85.00;;;22.85;53.37;99104.19;4989559;28;108852;-90
2022/05/20 03:25:39;;;;;;;4.20;3.23;;;22.30;85.10;;;22.84;53.05;99100.56;4986604;28;124216;-89
2022/05/20 03:28:06;;;;;;;4.17;3.23;;;22.30;85.30;;;22.85;52.99;99105.00;4970856;28;123906;-89
2022/05/20 03:30:33;;;;;;;3.40;3.10;;;22.30;85.40;;;22.86;53.03;99100.16;4970177;28;109813;-89
2022/05/20 03:32:59;;;;;;;3.60;3.17;;;22.30;85.50;;;22.87;53.24;99107.44;4971603;28;109069;-90
2022/05/20 03:35:26;;;;;;;6.90;3.70;;;22.30;85.60;;;22.86;53.20;99103.81;4970544;28;123248;-88
2022/05/20 03:37:52;;;;;;;3.40;3.10;;;22.30;85.70;;;22.86;53.35;99106.66;4971302;28;122354;-90
2022/05/20 03:40:19;;;;;;;5.13;3.50;;;22.30;85.90;;;22.86;53.60;99109.47;4987889;28;109236;-88
2022/05/20 03:42:45;;;;;;;5.90;3.57;;;22.30;86.00;;;22.85;53.55;99110.63;4974005;28;110001;-89
2022/05/20 03:45:12;;;;;;;3.20;2.90;;;22.30;86.10;;;22.85;53.33;99107.03;4971667;28;123969;-90
2022/05/20 03:47:38;;;;;;;3.60;3.07;;;22.20;86.10;;;22.83;53.55;99103.78;4969468;28;123190;-89
2022/05/20 03:50:05;;;;;;;4.90;4.10;;;22.20;86.10;;;22.80;53.65;99107.38;4956036;28;108255;-90
2022/05/20 03:52:32;;;;;;;3.57;3.10;;;22.20;86.40;;;22.75;53.75;99100.06;4970975;28;108968;-89
2022/05/20 03:54:59;;;;;;;5.03;3.10;;;22.20;86.40;;;22.73;53.65;99105.31;4968853;28;124759;-89
2022/05/20 03:57:25;;;;;;;3.13;2.70;;;22.20;86.50;;;22.71;53.64;99104.88;4971804;28;124903;-89
2022/05/20 03:59:51;;;;;;;4.03;3.20;;;22.10;86.50;;;22.68;53.97;99100.81;4970455;28;109132;-89
2022/05/20 04:02:18;;;;;;;3.60;3.30;;;22.10;86.60;;;22.69;53.75;99107.25;4971124;28;109044;-89
2022/05/20 04:04:49;;;;;;;3.17;2.87;;;22.10;86.60;;;22.71;53.81;99107.69;4968967;28;124116;-89
2022/05/20 04:07:26;;;;;;;4.50;4.10;;;22.10;86.60;;;22.71;53.63;99111.31;4969517;28;124309;-88
2022/05/20 04:09:53;;;;;;;5.60;3.73;;;22.10;86.60;;;22.73;53.61;99102.47;4985669;28;108444;-88
2022/05/20 04:12:42;;;;;;;5.47;4.33;;;22.10;86.60;;;22.69;53.37;99102.44;4953161;28;109261;-87
2022/05/20 04:15:14;;;;;;;3.97;3.57;;;22.10;86.40;;;22.68;53.28;99103.63;4971180;28;122797;-88
2022/05/20 04:17:41;;;;;;;4.53;4.03;;;22.10;86.30;;;22.70;53.22;99097.59;4985291;28;123791;-88
2022/05/20 04:20:08;;;;;;;3.60;2.93;;;22.10;86.40;;;22.69;53.48;99099.63;4974603;28;109220;-88
2022/05/20 04:22:38;;;;;;;3.50;3.20;;;22.10;86.30;;;22.70;53.29;99101.25;4972730;28;109003;-88
2022/05/20 04:25:05;;;;;;;3.90;3.10;;;22.10;86.40;;;22.74;53.27;99100.47;4987820;28;124114;-89
2022/05/20 04:27:32;;;;;;;3.17;2.97;;;22.10;86.40;;;22.76;53.14;99104.53;4982539;28;124238;-89
2022/05/20 04:29:59;;;;;;;5.23;3.70;;;22.20;86.20;;;22.75;52.90;99096.44;4992611;28;110098;-88
2022/05/20 04:32:25;;;;;;;3.30;3.00;;;22.10;85.70;;;22.74;52.62;99092.81;4975864;28;110171;-87
2022/05/20 04:34:52;;;;;;;3.87;3.43;;;22.10;85.40;;;22.74;52.22;99087.19;4973798;28;123331;-88
2022/05/20 04:37:19;;;;;;;3.13;2.83;;;22.10;85.10;;;22.76;52.32;99089.63;4972986;28;124512;-89
2022/05/20 04:39:45;;;;;;;3.90;2.90;;;22.20;85.00;;;22.77;52.24;99088.44;4989440;28;109144;-88
2022/05/20 04:47:45;;;;;;;3.50;2.80;;;22.20;84.40;;;22.82;51.90;99094.50;5004142;28;124458;-88
2022/05/20 04:50:12;;;;;;;5.50;3.47;;;22.20;84.20;;;22.85;51.69;99095.75;4991608;28;109299;-87
2022/05/20 04:52:38;;;;;;;4.03;3.43;;;22.20;84.00;;;22.87;51.33;99091.34;4973438;28;109773;-88
2022/05/20 04:55:06;;;;;;;4.90;3.07;;;22.30;83.90;;;22.90;51.33;99099.00;4972008;28;123632;-88
2022/05/20 04:57:55;;;;;;;4.10;3.07;;;22.30;83.70;;;22.92;51.27;99105.09;4974176;28;123368;-87
2022/05/20 05:00:28;;;;;;;3.23;2.93;;;22.30;83.50;;;22.94;50.79;99102.69;4975556;28;109352;-88
2022/05/20 05:02:55;;;;;;;2.83;2.60;;;22.30;83.30;;;22.97;50.69;99103.97;4964617;28;109249;-87
2022/05/20 05:05:27;;;;;;;3.17;2.87;;;22.30;83.10;;;23.00;50.75;99096.72;4960440;28;124004;-88
2022/05/20 05:07:56;;;;;;;2.90;2.50;;;22.40;83.00;;;23.04;50.74;99092.72;4991859;28;123927;-88
2022/05/20 05:10:27;;;;;;;5.00;2.80;;;22.40;82.90;;;23.08;50.69;99101.22;4965169;28;109297;-88
2022/05/20 05:12:54;;;;;;;3.70;2.70;;;22.40;82.70;;;23.13;50.53;99100.84;4961832;28;108077;-91
2022/05/20 05:15:21;;;;;;;2.90;2.70;;;22.50;82.80;;;23.17;50.31;99103.72;4979338;28;123369;-87
2022/05/20 05:20:33;;;;;;;5.00;3.37;;;22.60;82.20;;;23.22;50.22;99103.38;4962272;28;111708;-89
2022/05/20 05:23:00;;;;;;;3.10;2.83;;;22.60;82.10;;;23.24;49.87;99110.22;4993159;28;109708;-87
2022/05/20 05:25:34;;;;;;;4.47;2.70;;;22.60;81.90;;;23.31;49.96;99112.28;4961148;28;122354;-87
2022/05/20 05:28:01;;;;;;;3.33;2.50;;;24.30;83.40;;;23.34;49.85;99105.84;4958186;28;124321;-88
2022/05/20 05:30:28;;;;;;;2.80;2.60;;;22.70;81.60;;;23.38;49.68;99110.34;4961739;28;109275;-86
2022/05/20 05:32:55;;;;;;;3.33;2.73;;;22.70;81.50;;;23.42;49.80;99110.34;4959968;28;108606;-87
2022/05/20 05:35:25;;;;;;;2.93;2.70;;;22.80;81.50;;;23.43;49.31;99105.50;4955213;28;124735;-89
2022/05/20 05:37:52;;;;;;;3.17;2.87;;;22.80;81.30;;;23.47;49.23;99109.19;4969030;28;123867;-87
2022/05/20 05:40:23;;;;;;;3.97;3.50;;;22.90;81.20;;;23.47;49.26;99101.53;4972776;28;108937;-87
2022/05/20 05:42:49;;;;;;;3.00;2.70;;;22.90;81.10;;;23.51;49.07;99108.03;4973789;28;109109;-88
2022/05/20 05:45:22;;;;;;;3.10;2.80;;;22.90;81.00;;;23.55;49.32;99106.00;4967446;28;124471;-88
2022/05/20 05:48:01;;;;;;;3.50;3.07;;;22.90;81.00;;;23.64;49.26;99114.13;4954319;28;123876;-88
2022/05/20 05:50:30;;;;;;;5.43;3.00;;;23.00;80.90;;;23.69;49.03;99108.13;4964668;28;109060;-89
2022/05/20 05:53:00;;;;;;;3.10;2.80;;;23.00;80.70;;;23.74;48.85;99107.78;4974627;28;109178;-86
2022/05/20 05:55:27;;;;;;;4.00;2.53;;;23.10;80.80;;;23.79;48.83;99101.75;4969964;28;125280;-88
2022/05/20 05:57:54;;;;;;;3.07;2.73;;;23.20;80.70;;;23.85;48.88;99104.22;4979241;28;123869;-89
2022/05/20 06:00:21;;;;;;;3.00;2.80;;;23.20;80.60;;;23.92;48.90;99104.25;4978598;28;110176;-88
2022/05/20 06:02:48;;;;;;;2.90;2.60;;;23.30;80.60;;;23.99;48.77;99104.28;5001526;28;108646;-88
2022/05/20 06:05:14;;;;;;;3.43;2.60;;;23.30;80.60;;;24.07;48.71;99094.63;4973872;28;123992;-88
2022/05/20 06:07:41;;;;;;;3.10;2.60;;;23.40;80.50;;;24.14;48.72;99097.50;4972178;28;123822;-89
2022/05/20 06:10:08;;;;;;;3.33;2.63;;;23.50;80.50;;;24.23;48.37;99097.97;4988475;28;108574;-88
2022/05/20 06:12:35;;;;;;;3.20;2.90;;;23.50;80.40;;;24.31;48.39;99100.78;4985797;28;110499;-88
2022/05/20 06:15:12;;;;;;;2.60;2.40;;;23.60;80.20;;;24.38;48.16;99100.84;4970935;28;123449;-88
2022/05/20 06:17:39;;;;;;;3.80;2.80;;;23.70;80.20;;;24.45;47.88;99089.59;4972518;28;124198;-89
2022/05/20 06:20:06;;;;;;;3.17;2.80;;;23.70;79.90;;;24.49;48.17;99090.41;4975942;28;109243;-88
2022/05/20 06:22:33;;;;;;;3.23;2.60;;;23.80;79.70;;;24.57;47.57;99091.22;4975250;28;108680;-89
2022/05/20 06:24:59;;;;;;;3.83;2.97;;;23.90;79.50;;;24.62;47.55;99088.03;4972067;28;124764;-89
2022/05/20 06:27:26;;;;;;;4.77;2.73;;;23.90;79.10;;;24.68;47.31;99086.41;4990803;28;122924;-89
2022/05/20 06:29:53;;;;;;;5.80;2.93;;;24.00;79.00;;;24.75;47.14;99083.59;4991374;28;108060;-87
2022/05/20 06:32:20;;;;;;;4.00;3.07;;;24.00;78.40;;;24.83;46.62;99090.09;4989254;28;108346;-87
2022/05/20 06:40:20;;;;;;;3.23;2.73;;;24.30;77.90;;;25.07;46.45;99080.81;4985474;28;109664;-87
2022/05/20 06:42:46;;;;;;;4.03;2.97;;;24.40;77.60;;;25.14;46.00;99077.97;4968509;28;108130;-88
2022/05/20 06:45:14;;;;;;;4.37;2.90;;;24.40;77.20;;;25.23;46.13;99082.47;4966341;28;124002;-89
2022/05/20 06:47:41;;;;;;;5.17;2.87;;;24.50;77.10;;;25.31;45.67;99084.88;4973645;28;123784;-90
2022/05/20 06:50:11;;;;;;;4.20;2.83;;;24.60;76.80;;;25.40;45.97;99090.13;4987936;28;109625;-89
2022/05/20 06:52:37;;;;;;;3.30;2.70;;;24.70;76.70;;;25.52;45.58;99074.72;4971136;28;109735;-81
2022/05/20 06:55:04;;;;;;;3.30;2.73;;;24.80;76.50;;;25.61;45.26;99071.50;4974988;28;124052;-87
2022/05/20 06:57:31;;;;;;;4.33;2.77;;;24.90;76.20;;;25.70;45.03;99083.19;4986265;28;122950;-85
2022/05/20 06:59:57;;;;;;;3.10;2.80;;;25.00;76.00;;;25.78;45.08;99079.13;4980301;28;110104;-85
2022/05/20 07:02:24;;;;;;;5.07;2.80;;;25.10;75.80;;;25.86;44.97;99077.94;4971078;28;109995;-87
2022/05/20 07:04:50;;;;;;;5.17;3.10;;;25.20;75.50;;;25.92;44.22;99076.28;4989040;28;122111;-87
2022/05/20 07:07:17;;;;;;;4.03;2.80;;;25.30;75.20;;;26.00;44.26;99071.41;4971940;28;122984;-86
2022/05/20 07:09:44;;;;;;;3.67;3.07;;;25.30;74.80;;;26.05;44.32;99076.66;4985750;28;108095;-87
2022/05/20 07:12:11;;;;;;;4.73;3.43;;;25.40;74.60;;;26.12;43.96;99073.78;4984408;28;109423;-86
2022/05/20 07:14:37;;;;;;;4.63;2.97;;;25.40;74.30;;;26.20;43.71;99080.25;4981298;28;125014;-87
2022/05/20 07:17:04;;;;;;;3.27;2.97;;;25.50;74.10;;;26.27;43.95;99070.88;4981561;28;123782;-87
2022/05/20 07:19:30;;;;;;;2.80;2.60;;;25.60;73.90;;;26.36;43.46;99072.06;4990299;28;109250;-88
2022/05/20 07:21:57;;;;;;;3.30;3.00;;;25.70;73.80;;;26.45;43.92;99075.25;4975015;28;108844;-85
2022/05/20 07:24:23;;;;;;;3.30;2.90;;;25.80;73.70;;;26.56;43.29;99075.22;4992305;28;123448;-83
2022/05/20 07:26:50;;;;;;;3.07;2.67;;;25.90;73.40;;;26.65;42.98;99066.25;4985862;28;124091;-88
2022/05/20 07:29:16;;;;;;;3.93;3.20;;;26.00;73.20;;;26.74;42.92;99069.44;4970833;28;109611;-86
2022/05/20 07:31:43;;;;;;;4.70;3.07;;;26.00;72.70;;;26.79;42.67;99071.84;4984962;28;107363;-84
2022/05/20 07:34:09;;;;;;;3.20;2.87;;;26.10;72.60;;;26.87;42.54;99062.06;4969724;28;125288;-86
2022/05/20 07:36:36;;;;;;;4.67;3.30;;;26.20;72.30;;;26.96;42.58;99055.09;4972910;28;123803;-87
2022/05/20 07:39:02;;;;;;;3.07;2.70;;;26.30;72.10;;;27.06;42.59;99051.38;4986479;28;109984;-87
2022/05/20 07:41:29;;;;;;;4.43;3.13;;;26.40;72.10;;;27.17;42.44;99048.47;4973204;28;109083;-87
2022/05/20 07:43:56;;;;;;;4.67;3.57;;;26.50;71.90;;;27.26;42.55;99043.91;4969848;28;124470;-86
2022/05/20 07:46:23;;;;;;;2.93;2.60;;;26.60;71.80;;;27.36;42.38;99041.41;4971819;28;123860;-87
2022/05/20 07:48:49;;;;;;;3.17;2.87;;;26.70;71.60;;;27.45;41.86;99047.41;4986765;28;108698;-86
2022/05/20 07:51:18;;;;;;;2.80;2.60;;;26.70;71.20;;;27.51;41.75;99046.53;4990588;28;109261;-86
2022/05/20 07:53:56;;;;;;;3.57;3.27;;;26.80;70.80;;;27.59;41.91;99047.25;4982731;28;125008;-86
2022/05/20 07:56:30;;;;;;;4.70;2.50;;;26.90;70.70;;;27.68;41.73;99046.75;4987000;28;124478;-87
2022/05/20 07:59:05;;;;;;;3.10;2.30;;;27.00;70.50;;;27.78;41.48;99045.84;5001653;28;109407;-87
2022/05/20 08:01:36;;;;;;;4.17;2.93;;;27.10;70.30;;;27.88;41.48;99058.31;4985722;28;109020;-85
2022/05/20 08:07:00;;;;;;;3.80;2.67;;;27.30;69.60;;;28.03;40.96;99048.41;4982967;28;125077;-85
2022/05/20 08:09:26;;;;;;;3.33;3.03;;;27.40;70.30;;;28.10;40.79;99042.66;4977124;28;109099;-88
2022/05/20 08:11:54;;;;;;;3.20;2.90;;;27.40;69.00;;;28.15;40.54;99044.97;4993991;28;108221;-88
2022/05/20 08:14:20;;;;;;;3.33;3.03;;;27.50;68.90;;;28.24;40.53;99032.28;4953491;28;124659;-88
2022/05/20 08:16:47;;;;;;;3.50;2.60;;;27.60;68.60;;;28.31;40.39;99035.84;5007894;28;123596;-88
2022/05/20 08:19:14;;;;;;;2.90;2.70;;;27.60;68.20;;;28.37;40.09;99021.97;4986761;28;109509;-87
2022/05/20 08:21:40;;;;;;;3.17;2.70;;;27.70;68.00;;;28.42;40.21;99025.16;4979048;28;109466;-89
2022/05/20 08:24:07;;;;;;;3.03;2.73;;;27.80;67.80;;;28.48;40.21;99019.81;4987895;28;122192;-89
2022/05/20 08:26:34;;;;;;;3.07;2.40;;;27.80;67.60;;;28.53;40.01;99022.19;4966292;28;123222;-84
2022/05/20 08:29:00;;;;;;;2.73;2.50;;;27.90;67.40;;;28.60;39.70;99022.06;4962995;28;108854;-88
2022/05/20 08:31:27;;;;;;;2.97;2.73;;;28.00;67.20;;;28.66;39.20;99018.72;4993672;28;108027;-88
2022/05/20 08:33:54;;;;;;;4.20;2.80;;;27.90;66.10;;;28.67;39.24;99008.97;4969183;28;124448;-88
2022/05/20 08:36:21;;;;;;;5.20;2.97;;;28.00;65.90;;;28.72;39.21;99012.16;4973536;28;123254;-89
2022/05/20 08:38:48;;;;;;;3.20;2.87;;;28.10;65.70;;;28.77;38.92;99002.31;4980960;28;110215;-87
2022/05/20 08:41:37;;;;;;;3.00;2.60;;;28.10;65.20;;;28.80;38.93;98998.59;4976900;28;110229;-88
2022/05/20 08:44:11;;;;;;;2.90;2.60;;;28.20;65.20;;;28.87;38.42;98998.47;4971860;28;124108;-90
2022/05/20 08:46:40;;;;;;;3.10;2.67;;;28.20;64.70;;;28.91;38.42;98998.41;4969015;28;122776;-87
2022/05/20 08:49:13;;;;;;;3.37;2.53;;;28.30;64.30;;;28.96;38.00;98997.91;4977815;28;109674;-89
2022/05/20 08:51:45;;;;;;;3.30;3.00;;;28.30;64.00;;;29.00;38.11;98999.47;4972059;28;108887;-87
2022/05/20 08:54:11;;;;;;;6.17;3.33;;;28.40;63.70;;;29.04;37.47;98993.75;4982373;28;123032;-88
2022/05/20 08:56:38;;;;;;;7.23;2.87;;;28.40;63.20;;;29.06;37.93;98996.97;4972467;28;123701;-89
2022/05/20 08:59:16;;;;;;;3.60;2.73;;;28.50;63.10;;;29.08;37.68;98983.13;4976816;28;108592;-86
2022/05/20 09:01:47;;;;;;;4.20;3.17;;;28.50;62.80;;;29.12;37.77;98971.66;4991129;28;108820;-88
2022/05/20 09:04:18;;;;;;;3.80;3.30;;;28.60;62.60;;;29.17;37.68;98982.56;4981858;28;124600;-88
2022/05/20 09:07:09;;;;;;;5.17;3.43;;;28.60;62.50;;;29.19;37.34;98977.22;4972207;28;123742;-90
2022/05/20 09:09:59;;;;;;;4.43;3.60;;;28.60;62.40;;;29.21;37.28;98975.56;4986105;28;109564;-88
2022/05/20 09:12:39;;;;;;;3.20;2.90;;;28.70;61.70;;;29.26;36.78;98982.81;4988721;28;109439;-91
2022/05/20 09:18:11;;;;;;;4.00;2.83;;;28.70;59.60;;;29.29;35.43;98973.41;4980003;28;124968;-89
2022/05/20 09:20:52;;;;;;;4.73;3.47;;;28.70;58.50;;;29.30;35.34;98960.75;4972831;28;109417;-89
2022/05/20 09:23:22;;;;;;;3.83;3.40;;;28.80;58.30;;;29.35;35.35;98965.94;4973141;28;108725;-89
2022/05/20 09:26:12;;;;;;;6.63;3.50;;;28.80;58.00;;;29.41;35.19;98967.03;4999616;28;124127;-88
2022/05/20 09:28:45;;;;;;;5.17;3.43;;;28.90;57.70;;;29.47;35.15;98951.09;5005118;28;123770;-91
2022/05/20 09:31:58;;;;;;;6.03;3.20;;;28.90;58.00;;;29.52;34.75;98947.69;4991036;28;110237;-89
2022/05/20 09:34:27;;;;;;;4.70;3.23;;;29.00;57.40;;;29.57;34.97;98945.59;4964297;28;110021;-88
2022/05/20 09:37:05;;;;;;;5.80;3.60;;;29.00;57.30;;;29.58;34.81;98941.50;4975493;28;124866;-88
2022/05/20 09:39:36;;;;;;;4.77;3.50;;;29.10;56.90;;;29.62;34.61;98930.84;4970276;28;123882;-88
2022/05/20 09:42:22;;;;;;;5.30;3.20;;;29.10;56.90;;;29.65;34.08;98942.19;4989254;28;109178;-89
2022/05/20 09:44:58;;;;;;;4.53;3.43;;;29.10;55.90;;;29.66;34.63;98940.13;4972765;28;108938;-87
2022/05/20 09:47:51;;;;;;;3.80;3.40;;;29.20;56.20;;;29.68;34.16;98915.66;4983598;28;125267;-88
2022/05/20 09:50:17;;;;;;;3.67;3.20;;;29.20;55.70;;;29.71;34.04;98928.22;4993636;28;124082;-91
2022/05/20 09:52:57;;;;;;;4.17;3.50;;;29.20;55.80;;;29.77;34.01;98943.59;4990837;28;107952;-90
2022/05/20 09:55:35;;;;;;;9.63;3.37;;;29.30;55.30;;;29.79;33.42;98914.66;4989289;28;109248;-89
2022/05/20 09:58:26;;;;;;;4.93;3.20;;;29.30;54.80;;;29.80;34.03;98919.91;4980158;28;123746;-88
2022/05/20 10:01:05;;;;;;;5.70;3.27;;;29.30;54.90;;;29.84;33.72;98932.00;4982204;28;124990;-88
2022/05/20 10:03:47;;;;;;;5.53;3.40;;;29.30;54.70;;;29.84;33.71;98914.91;4989789;28;109302;-88
2022/05/20 10:06:36;;;;;;;6.03;3.73;;;29.40;54.60;;;29.86;33.68;98909.59;4991845;28;108273;-87
2022/05/20 10:10:04;;;;;;;3.60;3.27;;;29.40;54.50;;;29.89;33.49;98905.84;4974148;28;122845;-91
2022/05/20 10:12:33;;;;;;;4.47;3.17;;;29.40;54.40;;;29.95;33.81;98892.69;4879346;28;124607;-90
2022/05/20 10:15:12;;;;;;;4.60;3.20;;;29.50;54.70;;;30.02;34.10;98888.09;4960122;28;109218;-87
2022/05/20 10:18:22;;;;;;;7.37;3.73;;;29.60;54.90;;;30.05;33.39;98878.66;4971722;28;108584;-86
2022/05/20 10:21:48;;;;;;;5.23;3.37;;;29.60;53.80;;;30.06;33.44;98880.25;4999449;28;123518;-88
2022/05/20 10:24:46;;;;;;;3.80;2.80;;;29.70;53.70;;;30.11;33.38;98874.81;4903029;28;124020;-89
2022/05/20 10:28:10;;;;;;;3.60;3.30;;;29.70;54.10;;;30.16;33.19;98868.59;4987321;28;109805;-89
2022/05/20 10:33:32;;;;;;;4.00;3.00;;;29.80;53.60;;;30.32;32.63;98864.97;4988334;28;125344;-89
2022/05/20 10:36:32;;;;;;;5.47;3.80;;;29.90;53.20;;;30.36;32.29;98850.66;4979325;28;124485;-87
2022/05/20 10:39:26;;;;;;;4.40;3.23;;;29.90;52.10;;;30.45;31.81;98855.72;4963373;28;108704;-89
2022/05/20 10:42:27;;;;;;;9.20;3.30;;;29.90;52.00;;;30.51;30.24;98879.59;4993691;28;109607;-89
2022/05/20 10:49:00;;;;;;;4.97;3.00;;;30.10;48.90;;;30.63;30.33;98858.91;4977724;28;124257;-90
2022/05/20 10:51:43;;;;;;;8.80;4.20;;;30.20;49.30;;;30.70;29.78;98860.78;4974273;28;109549;-89
2022/05/20 10:54:40;;;;;;;4.00;2.93;;;30.20;48.30;;;30.75;30.05;98846.75;4978576;28;109967;-89
2022/05/20 10:57:52;;;;;;;5.50;3.27;;;30.30;47.80;;;30.81;29.84;98833.56;4993703;28;124423;-88
2022/05/20 11:00:22;;;;;;;6.27;3.33;;;30.30;47.60;;;30.90;29.94;98829.31;4975373;28;123224;-89
2022/05/20 11:03:19;;;;;;;6.13;3.20;;;30.40;47.60;;;30.96;29.30;98833.19;4990637;28;108956;-90
2022/05/20 11:06:25;;;;;;;3.77;2.80;;;30.50;47.00;;;31.02;29.42;98828.53;4963744;28;108740;-90
2022/05/20 11:09:04;;;;;;;5.30;3.07;;;30.50;46.90;;;31.11;29.41;98823.00;4992163;28;123943;-89